sensor_id;sensor_type;location;lat;lon;timestamp;temperature;humidity
65470;DHT22;52067;50.710;14.492;2023-01-30T00:00:23;-3.00;80.18
65470;DHT22;52067;50.710;14.492;2023-01-30T00:02:49;-2.93;79.59
65470;DHT22;52067;50.710;14.492;2023-01-30T00:05:14;-3.06;79.44
65470;DHT22;52067;50.710;14.492;2023-01-30T00:07:39;-2.92;79.49
65470;DHT22;52067;50.710;14.492;2023-01-30T00:10:05;-2.89;80.37
65470;DHT22;52067;50.710;14.492;2023-01-30T00:12:30;-3.00;81.41
65470;DHT22;52067;50.710;14.492;2023-01-30T00:14:56;-2.75;80.14
65470;DHT22;52067;50.710;14.492;2023-01-30T00:17:21;-2.79;79.10
65470;DHT22;52067;50.710;14.492;2023-01-30T00:19:46;-2.92;79.42
65470;DHT22;52067;50.710;14.492;2023-01-30T00:22:12;-2.96;79.42
65470;DHT22;52067;50.710;14.492;2023-01-30T00:24:37;-2.96;80.05
65470;DHT22;52067;50.710;14.492;2023-01-30T00:27:03;-2.93;79.60
65470;DHT22;52067;50.710;14.492;2023-01-30T00:29:28;-3.00;79.58
65470;DHT22;52067;50.710;14.492;2023-01-30T00:31:53;-2.97;79.98
65470;DHT22;52067;50.710;14.492;2023-01-30T00:34:19;-3.00;80.13
65470;DHT22;52067;50.710;14.492;2023-01-30T00:36:44;-2.87;80.02
65470;DHT22;52067;50.710;14.492;2023-01-30T00:39:09;-2.86;79.69
65470;DHT22;52067;50.710;14.492;2023-01-30T00:41:35;-2.86;79.71
65470;DHT22;52067;50.710;14.492;2023-01-30T00:44:19;-3.31;82.46
65470;DHT22;52067;50.710;14.492;2023-01-30T00:47:03;-3.30;82.72
65470;DHT22;52067;50.710;14.492;2023-01-30T00:49:33;-3.45;84.30
65470;DHT22;52067;50.710;14.492;2023-01-30T00:51:58;-3.31;83.55
65470;DHT22;52067;50.710;14.492;2023-01-30T00:54:24;-3.27;83.20
65470;DHT22;52067;50.710;14.492;2023-01-30T00:56:49;-3.40;82.88
65470;DHT22;52067;50.710;14.492;2023-01-30T00:59:14;-3.31;82.84
65470;DHT22;52067;50.710;14.492;2023-01-30T01:01:40;-3.40;82.67
65470;DHT22;52067;50.710;14.492;2023-01-30T01:04:05;-3.31;82.47
65470;DHT22;52067;50.710;14.492;2023-01-30T01:06:33;-3.34;82.82
65470;DHT22;52067;50.710;14.492;2023-01-30T01:08:58;-3.28;82.12
65470;DHT22;52067;50.710;14.492;2023-01-30T01:11:24;-3.59;82.76
65470;DHT22;52067;50.710;14.492;2023-01-30T01:13:51;-3.78;84.48
65470;DHT22;52067;50.710;14.492;2023-01-30T01:16:17;-3.64;83.67
65470;DHT22;52067;50.710;14.492;2023-01-30T01:18:42;-3.89;83.97
65470;DHT22;52067;50.710;14.492;2023-01-30T01:21:07;-3.86;85.05
65470;DHT22;52067;50.710;14.492;2023-01-30T01:23:33;-3.81;84.83
65470;DHT22;52067;50.710;14.492;2023-01-30T01:26:01;-3.54;84.05
65470;DHT22;52067;50.710;14.492;2023-01-30T01:28:27;-3.33;82.91
65470;DHT22;52067;50.710;14.492;2023-01-30T01:30:52;-3.17;82.50
65470;DHT22;52067;50.710;14.492;2023-01-30T01:33:17;-3.06;82.02
65470;DHT22;52067;50.710;14.492;2023-01-30T01:35:43;-3.08;81.59
65470;DHT22;52067;50.710;14.492;2023-01-30T01:38:08;-3.00;82.46
65470;DHT22;52067;50.710;14.492;2023-01-30T01:40:34;-3.20;83.51
65470;DHT22;52067;50.710;14.492;2023-01-30T01:43:21;-3.00;81.95
65470;DHT22;52067;50.710;14.492;2023-01-30T01:45:48;-3.08;83.31
65470;DHT22;52067;50.710;14.492;2023-01-30T01:48:28;-3.03;82.59
65470;DHT22;52067;50.710;14.492;2023-01-30T01:51:04;-3.03;82.88
65470;DHT22;52067;50.710;14.492;2023-01-30T01:53:36;-3.07;83.23
65470;DHT22;52067;50.710;14.492;2023-01-30T01:56:03;-3.00;83.27
65470;DHT22;52067;50.710;14.492;2023-01-30T01:59:03;-2.68;82.27
65470;DHT22;52067;50.710;14.492;2023-01-30T02:01:32;-2.52;82.27
65470;DHT22;52067;50.710;14.492;2023-01-30T02:04:00;-2.41;81.91
65470;DHT22;52067;50.710;14.492;2023-01-30T02:06:27;-2.64;81.83
65470;DHT22;52067;50.710;14.492;2023-01-30T02:08:57;-2.65;81.96
65470;DHT22;52067;50.710;14.492;2023-01-30T02:11:30;-2.58;81.74
65470;DHT22;52067;50.710;14.492;2023-01-30T02:13:59;-2.80;81.80
65470;DHT22;52067;50.710;14.492;2023-01-30T02:16:26;-3.06;84.68
65470;DHT22;52067;50.710;14.492;2023-01-30T02:18:51;-2.99;85.13
65470;DHT22;52067;50.710;14.492;2023-01-30T02:21:50;-3.00;84.77
65470;DHT22;52067;50.710;14.492;2023-01-30T02:38:47;-2.89;84.03
65470;DHT22;52067;50.710;14.492;2023-01-30T02:41:28;-2.80;83.39
65470;DHT22;52067;50.710;14.492;2023-01-30T02:44:51;-2.82;83.34
65470;DHT22;52067;50.710;14.492;2023-01-30T02:46:56;-2.72;83.23
65470;DHT22;52067;50.710;14.492;2023-01-30T02:49:39;-2.89;83.22
65470;DHT22;52067;50.710;14.492;2023-01-30T02:52:08;-2.80;83.66
65470;DHT22;52067;50.710;14.492;2023-01-30T02:54:34;-2.58;82.51
65470;DHT22;52067;50.710;14.492;2023-01-30T02:57:00;-2.96;83.80
65470;DHT22;52067;50.710;14.492;2023-01-30T03:10:14;-2.51;81.29
65470;DHT22;52067;50.710;14.492;2023-01-30T03:12:50;-2.75;82.18
65470;DHT22;52067;50.710;14.492;2023-01-30T03:17:46;-2.46;81.70
65470;DHT22;52067;50.710;14.492;2023-01-30T03:20:13;-2.33;81.32
65470;DHT22;52067;50.710;14.492;2023-01-30T03:22:39;-2.45;81.84
65470;DHT22;52067;50.710;14.492;2023-01-30T03:25:05;-2.54;82.29
65470;DHT22;52067;50.710;14.492;2023-01-30T03:27:32;-2.46;82.43
65470;DHT22;52067;50.710;14.492;2023-01-30T03:29:58;-2.54;83.12
65470;DHT22;52067;50.710;14.492;2023-01-30T03:32:23;-2.48;83.61
65470;DHT22;52067;50.710;14.492;2023-01-30T03:34:49;-2.24;82.40
65470;DHT22;52067;50.710;14.492;2023-01-30T03:37:14;-2.45;82.05
65470;DHT22;52067;50.710;14.492;2023-01-30T03:39:39;-2.34;82.47
65470;DHT22;52067;50.710;14.492;2023-01-30T03:42:05;-2.33;82.03
65470;DHT22;52067;50.710;14.492;2023-01-30T03:44:31;-2.38;81.36
65470;DHT22;52067;50.710;14.492;2023-01-30T03:46:56;-2.38;82.33
65470;DHT22;52067;50.710;14.492;2023-01-30T03:49:21;-2.42;81.65
65470;DHT22;52067;50.710;14.492;2023-01-30T03:51:47;-2.24;82.13
65470;DHT22;52067;50.710;14.492;2023-01-30T03:54:12;-1.98;81.66
65470;DHT22;52067;50.710;14.492;2023-01-30T03:56:38;-2.04;81.48
65470;DHT22;52067;50.710;14.492;2023-01-30T03:59:03;-1.80;80.87
65470;DHT22;52067;50.710;14.492;2023-01-30T04:01:28;-1.67;81.02
65470;DHT22;52067;50.710;14.492;2023-01-30T04:03:54;-1.79;81.53
65470;DHT22;52067;50.710;14.492;2023-01-30T04:06:19;-1.96;81.29
65470;DHT22;52067;50.710;14.492;2023-01-30T04:08:45;-1.82;81.20
65470;DHT22;52067;50.710;14.492;2023-01-30T04:11:10;-1.79;81.31
65470;DHT22;52067;50.710;14.492;2023-01-30T04:13:35;-1.75;80.86
65470;DHT22;52067;50.710;14.492;2023-01-30T04:16:22;-1.73;80.89
65470;DHT22;52067;50.710;14.492;2023-01-30T04:18:47;-1.79;81.97
65470;DHT22;52067;50.710;14.492;2023-01-30T04:21:13;-1.67;81.82
65470;DHT22;52067;50.710;14.492;2023-01-30T04:23:39;-1.67;81.63
65470;DHT22;52067;50.710;14.492;2023-01-30T04:26:05;-1.51;81.15
65470;DHT22;52067;50.710;14.492;2023-01-30T04:28:31;-1.36;80.90
65470;DHT22;52067;50.710;14.492;2023-01-30T04:30:57;-1.38;80.52
65470;DHT22;52067;50.710;14.492;2023-01-30T04:33:22;-1.32;80.77
65470;DHT22;52067;50.710;14.492;2023-01-30T04:35:55;-1.42;81.76
65470;DHT22;52067;50.710;14.492;2023-01-30T04:38:22;-1.34;81.36
65470;DHT22;52067;50.710;14.492;2023-01-30T04:40:51;-1.39;81.25
65470;DHT22;52067;50.710;14.492;2023-01-30T04:43:18;-1.32;80.39
65470;DHT22;52067;50.710;14.492;2023-01-30T04:45:44;-1.24;80.86
65470;DHT22;52067;50.710;14.492;2023-01-30T04:48:10;-1.08;80.38
65470;DHT22;52067;50.710;14.492;2023-01-30T04:50:36;-1.03;79.21
65470;DHT22;52067;50.710;14.492;2023-01-30T04:53:01;-0.88;79.13
65470;DHT22;52067;50.710;14.492;2023-01-30T04:55:27;-0.90;79.73
65470;DHT22;52067;50.710;14.492;2023-01-30T04:57:52;-0.81;78.71
65470;DHT22;52067;50.710;14.492;2023-01-30T05:00:18;-0.84;78.46
65470;DHT22;52067;50.710;14.492;2023-01-30T05:02:43;-0.76;77.95
65470;DHT22;52067;50.710;14.492;2023-01-30T05:05:08;-0.80;77.98
65470;DHT22;52067;50.710;14.492;2023-01-30T05:07:34;-0.80;79.28
65470;DHT22;52067;50.710;14.492;2023-01-30T05:09:59;-0.72;78.72
65470;DHT22;52067;50.710;14.492;2023-01-30T05:12:27;-0.83;78.84
65470;DHT22;52067;50.710;14.492;2023-01-30T05:14:52;-0.90;79.17
65470;DHT22;52067;50.710;14.492;2023-01-30T05:17:17;-0.98;79.98
65470;DHT22;52067;50.710;14.492;2023-01-30T05:19:43;-0.84;80.26
65470;DHT22;52067;50.710;14.492;2023-01-30T05:22:08;-0.97;79.64
65470;DHT22;52067;50.710;14.492;2023-01-30T05:24:33;-1.05;80.76
65470;DHT22;52067;50.710;14.492;2023-01-30T05:26:59;-1.01;80.98
65470;DHT22;52067;50.710;14.492;2023-01-30T05:29:24;-0.93;80.84
65470;DHT22;52067;50.710;14.492;2023-01-30T05:31:50;-0.96;80.34
65470;DHT22;52067;50.710;14.492;2023-01-30T05:34:15;-0.94;80.88
65470;DHT22;52067;50.710;14.492;2023-01-30T05:36:40;-0.87;80.34
65470;DHT22;52067;50.710;14.492;2023-01-30T05:39:06;-0.69;80.29
65470;DHT22;52067;50.710;14.492;2023-01-30T05:41:31;-0.72;79.55
65470;DHT22;52067;50.710;14.492;2023-01-30T05:43:56;-0.81;80.29
65470;DHT22;52067;50.710;14.492;2023-01-30T05:46:22;-0.79;79.91
65470;DHT22;52067;50.710;14.492;2023-01-30T05:48:48;-0.97;80.95
65470;DHT22;52067;50.710;14.492;2023-01-30T05:51:21;-0.72;79.98
65470;DHT22;52067;50.710;14.492;2023-01-30T05:53:47;-0.62;79.96
65470;DHT22;52067;50.710;14.492;2023-01-30T05:56:13;-0.46;78.97
65470;DHT22;52067;50.710;14.492;2023-01-30T05:58:39;-0.38;77.98
65470;DHT22;52067;50.710;14.492;2023-01-30T06:01:06;-0.56;78.79
65470;DHT22;52067;50.710;14.492;2023-01-30T06:03:34;-0.57;78.98
65470;DHT22;52067;50.710;14.492;2023-01-30T06:06:03;-0.48;78.16
65470;DHT22;52067;50.710;14.492;2023-01-30T06:08:30;-0.63;79.73
65470;DHT22;52067;50.710;14.492;2023-01-30T06:11:10;-0.56;79.38
65470;DHT22;52067;50.710;14.492;2023-01-30T06:13:36;-0.56;79.14
65470;DHT22;52067;50.710;14.492;2023-01-30T06:16:02;-0.59;79.64
65470;DHT22;52067;50.710;14.492;2023-01-30T06:18:28;-0.55;79.85
65470;DHT22;52067;50.710;14.492;2023-01-30T06:20:53;-0.55;78.97
65470;DHT22;52067;50.710;14.492;2023-01-30T06:23:19;-0.50;79.10
65470;DHT22;52067;50.710;14.492;2023-01-30T06:25:46;-0.45;79.22
65470;DHT22;52067;50.710;14.492;2023-01-30T06:28:12;-0.35;78.49
65470;DHT22;52067;50.710;14.492;2023-01-30T06:30:38;-0.30;79.30
65470;DHT22;52067;50.710;14.492;2023-01-30T06:33:04;-0.26;79.04
65470;DHT22;52067;50.710;14.492;2023-01-30T06:35:30;-0.21;78.89
65470;DHT22;52067;50.710;14.492;2023-01-30T06:37:55;-0.15;79.24
65470;DHT22;52067;50.710;14.492;2023-01-30T06:40:20;-0.21;79.97
65470;DHT22;52067;50.710;14.492;2023-01-30T06:42:46;-0.05;80.50
65470;DHT22;52067;50.710;14.492;2023-01-30T06:45:15;-0.21;81.88
65470;DHT22;52067;50.710;14.492;2023-01-30T06:50:11;-0.19;83.09
65470;DHT22;52067;50.710;14.492;2023-01-30T06:52:44;-0.43;84.17
65470;DHT22;52067;50.710;14.492;2023-01-30T06:55:11;-0.76;87.46
65470;DHT22;52067;50.710;14.492;2023-01-30T06:57:37;-0.67;87.79
65470;DHT22;52067;50.710;14.492;2023-01-30T07:00:04;-0.72;87.62
65470;DHT22;52067;50.710;14.492;2023-01-30T07:02:30;-0.72;88.13
65470;DHT22;52067;50.710;14.492;2023-01-30T07:04:59;-0.79;88.38
65470;DHT22;52067;50.710;14.492;2023-01-30T07:07:24;-0.57;87.92
65470;DHT22;52067;50.710;14.492;2023-01-30T07:09:49;-0.63;88.34
65470;DHT22;52067;50.710;14.492;2023-01-30T07:12:15;-0.48;87.41
65470;DHT22;52067;50.710;14.492;2023-01-30T07:14:40;-0.25;86.95
65470;DHT22;52067;50.710;14.492;2023-01-30T07:17:05;-0.28;86.64
65470;DHT22;52067;50.710;14.492;2023-01-30T07:19:31;-0.59;86.42
65470;DHT22;52067;50.710;14.492;2023-01-30T07:21:57;-0.88;88.71
65470;DHT22;52067;50.710;14.492;2023-01-30T07:24:22;-0.66;88.68
65470;DHT22;52067;50.710;14.492;2023-01-30T07:26:48;-0.50;87.81
65470;DHT22;52067;50.710;14.492;2023-01-30T07:29:13;-0.77;88.26
65470;DHT22;52067;50.710;14.492;2023-01-30T07:31:38;-0.66;88.90
65470;DHT22;52067;50.710;14.492;2023-01-30T07:34:04;-0.63;87.89
65470;DHT22;52067;50.710;14.492;2023-01-30T07:36:29;-0.73;88.19
65470;DHT22;52067;50.710;14.492;2023-01-30T07:38:58;-0.72;89.14
65470;DHT22;52067;50.710;14.492;2023-01-30T07:41:23;-0.48;89.14
65470;DHT22;52067;50.710;14.492;2023-01-30T07:43:49;-0.55;88.69
65470;DHT22;52067;50.710;14.492;2023-01-30T07:46:14;-0.60;89.63
65470;DHT22;52067;50.710;14.492;2023-01-30T07:48:39;-0.50;89.13
65470;DHT22;52067;50.710;14.492;2023-01-30T07:51:05;-0.72;89.68
65470;DHT22;52067;50.710;14.492;2023-01-30T07:53:30;-0.79;89.92
65470;DHT22;52067;50.710;14.492;2023-01-30T07:55:56;-0.63;90.46
65470;DHT22;52067;50.710;14.492;2023-01-30T07:58:21;-0.62;89.86
65470;DHT22;52067;50.710;14.492;2023-01-30T08:00:46;-0.39;89.95
65470;DHT22;52067;50.710;14.492;2023-01-30T08:03:13;-0.17;89.34
65470;DHT22;52067;50.710;14.492;2023-01-30T08:05:39;-0.18;89.32
65470;DHT22;52067;50.710;14.492;2023-01-30T08:08:04;-0.29;88.85
65470;DHT22;52067;50.710;14.492;2023-01-30T08:10:30;-0.02;88.98
65470;DHT22;52067;50.710;14.492;2023-01-30T08:12:55;-0.02;88.86
65470;DHT22;52067;50.710;14.492;2023-01-30T08:15:20;-0.02;89.03
65470;DHT22;52067;50.710;14.492;2023-01-30T08:17:56;0.16;88.96
65470;DHT22;52067;50.710;14.492;2023-01-30T08:20:21;0.30;88.31
65470;DHT22;52067;50.710;14.492;2023-01-30T08:22:47;0.27;88.09
65470;DHT22;52067;50.710;14.492;2023-01-30T08:25:12;0.13;88.54
65470;DHT22;52067;50.710;14.492;2023-01-30T08:27:38;0.09;89.52
65470;DHT22;52067;50.710;14.492;2023-01-30T08:30:04;-0.05;89.27
65470;DHT22;52067;50.710;14.492;2023-01-30T08:32:29;-0.04;89.46
65470;DHT22;52067;50.710;14.492;2023-01-30T08:34:54;0.31;89.13
65470;DHT22;52067;50.710;14.492;2023-01-30T08:37:20;0.19;88.48
65470;DHT22;52067;50.710;14.492;2023-01-30T08:39:45;0.20;89.37
65470;DHT22;52067;50.710;14.492;2023-01-30T08:42:10;0.10;89.71
65470;DHT22;52067;50.710;14.492;2023-01-30T08:44:36;0.47;89.16
65470;DHT22;52067;50.710;14.492;2023-01-30T08:47:01;0.56;88.53
65470;DHT22;52067;50.710;14.492;2023-01-30T08:49:27;0.78;87.75
65470;DHT22;52067;50.710;14.492;2023-01-30T08:51:52;0.81;88.11
65470;DHT22;52067;50.710;14.492;2023-01-30T08:54:17;0.50;88.11
65470;DHT22;52067;50.710;14.492;2023-01-30T08:56:43;0.34;88.81
65470;DHT22;52067;50.710;14.492;2023-01-30T08:59:08;0.03;89.49
65470;DHT22;52067;50.710;14.492;2023-01-30T09:01:34;0.34;89.68
65470;DHT22;52067;50.710;14.492;2023-01-30T09:03:59;0.44;89.22
65470;DHT22;52067;50.710;14.492;2023-01-30T09:06:24;0.60;89.27
65470;DHT22;52067;50.710;14.492;2023-01-30T09:08:50;0.56;88.78
65470;DHT22;52067;50.710;14.492;2023-01-30T09:11:16;0.98;88.27
65470;DHT22;52067;50.710;14.492;2023-01-30T09:13:41;1.18;87.38
65470;DHT22;52067;50.710;14.492;2023-01-30T09:16:08;1.08;86.83
65470;DHT22;52067;50.710;14.492;2023-01-30T09:18:38;0.79;88.79
65470;DHT22;52067;50.710;14.492;2023-01-30T09:21:04;1.23;87.75
65470;DHT22;52067;50.710;14.492;2023-01-30T09:23:29;1.35;86.29
65470;DHT22;52067;50.710;14.492;2023-01-30T09:25:55;0.79;87.91
65470;DHT22;52067;50.710;14.492;2023-01-30T09:28:20;0.40;88.99
65470;DHT22;52067;50.710;14.492;2023-01-30T09:30:46;0.60;89.12
65470;DHT22;52067;50.710;14.492;2023-01-30T09:33:11;0.91;88.93
65470;DHT22;52067;50.710;14.492;2023-01-30T09:35:40;0.92;88.27
65470;DHT22;52067;50.710;14.492;2023-01-30T09:38:06;1.16;88.34
65470;DHT22;52067;50.710;14.492;2023-01-30T09:40:32;0.85;88.80
65470;DHT22;52067;50.710;14.492;2023-01-30T09:48:16;1.18;88.20
65470;DHT22;52067;50.710;14.492;2023-01-30T09:53:36;1.51;87.04
65470;DHT22;52067;50.710;14.492;2023-01-30T09:56:04;1.57;86.36
65470;DHT22;52067;50.710;14.492;2023-01-30T09:58:43;1.61;86.82
65470;DHT22;52067;50.710;14.492;2023-01-30T10:01:17;1.64;86.22
65470;DHT22;52067;50.710;14.492;2023-01-30T10:04:02;1.68;86.16
65470;DHT22;52067;50.710;14.492;2023-01-30T10:06:30;1.61;86.65
65470;DHT22;52067;50.710;14.492;2023-01-30T10:09:12;1.88;86.25
65470;DHT22;52067;50.710;14.492;2023-01-30T10:11:57;1.70;85.82
65470;DHT22;52067;50.710;14.492;2023-01-30T10:30:46;2.25;86.07
65470;DHT22;52067;50.710;14.492;2023-01-30T10:33:27;2.21;86.76
65470;DHT22;52067;50.710;14.492;2023-01-30T10:36:19;2.22;85.92
65470;DHT22;52067;50.710;14.492;2023-01-30T10:38:51;1.73;88.69
65470;DHT22;52067;50.710;14.492;2023-01-30T10:44:02;1.95;87.02
65470;DHT22;52067;50.710;14.492;2023-01-30T10:50:05;2.22;87.70
65470;DHT22;52067;50.710;14.492;2023-01-30T10:52:35;2.43;86.50
65470;DHT22;52067;50.710;14.492;2023-01-30T10:55:16;2.74;85.69
65470;DHT22;52067;50.710;14.492;2023-01-30T11:00:28;3.15;83.33
65470;DHT22;52067;50.710;14.492;2023-01-30T11:05:51;3.24;82.77
65470;DHT22;52067;50.710;14.492;2023-01-30T11:08:26;3.24;83.21
65470;DHT22;52067;50.710;14.492;2023-01-30T11:10:53;3.32;83.02
65470;DHT22;52067;50.710;14.492;2023-01-30T11:13:32;3.34;82.62
65470;DHT22;52067;50.710;14.492;2023-01-30T11:16:05;3.31;82.78
65470;DHT22;52067;50.710;14.492;2023-01-30T11:18:32;3.48;82.09
65470;DHT22;52067;50.710;14.492;2023-01-30T11:21:03;3.56;81.79
65470;DHT22;52067;50.710;14.492;2023-01-30T11:23:40;3.63;81.75
65470;DHT22;52067;50.710;14.492;2023-01-30T11:26:06;3.73;81.46
65470;DHT22;52067;50.710;14.492;2023-01-30T11:28:39;3.84;80.43
65470;DHT22;52067;50.710;14.492;2023-01-30T11:33:41;3.59;81.23
65470;DHT22;52067;50.710;14.492;2023-01-30T11:36:25;3.59;81.58
65470;DHT22;52067;50.710;14.492;2023-01-30T11:39:01;3.43;82.02
65470;DHT22;52067;50.710;14.492;2023-01-30T11:41:28;3.49;81.99
65470;DHT22;52067;50.710;14.492;2023-01-30T11:44:01;3.38;82.47
65470;DHT22;52067;50.710;14.492;2023-01-30T11:46:29;3.42;82.46
65470;DHT22;52067;50.710;14.492;2023-01-30T11:49:04;3.40;82.40
65470;DHT22;52067;50.710;14.492;2023-01-30T11:51:35;3.36;82.28
65470;DHT22;52067;50.710;14.492;2023-01-30T11:54:05;3.28;82.94
65470;DHT22;52067;50.710;14.492;2023-01-30T11:56:34;3.42;82.29
65470;DHT22;52067;50.710;14.492;2023-01-30T11:59:21;3.58;81.58
65470;DHT22;52067;50.710;14.492;2023-01-30T12:01:48;3.51;81.77
65470;DHT22;52067;50.710;14.492;2023-01-30T12:04:14;3.38;81.90
65470;DHT22;52067;50.710;14.492;2023-01-30T12:06:41;3.29;82.15
65470;DHT22;52067;50.710;14.492;2023-01-30T12:09:44;3.38;81.51
65470;DHT22;52067;50.710;14.492;2023-01-30T12:12:29;3.38;81.54
65470;DHT22;52067;50.710;14.492;2023-01-30T12:15:26;3.25;82.66
65470;DHT22;52067;50.710;14.492;2023-01-30T12:18:26;3.12;83.34
65470;DHT22;52067;50.710;14.492;2023-01-30T12:24:19;3.19;82.28
65470;DHT22;52067;50.710;14.492;2023-01-30T12:26:50;3.36;82.00
65470;DHT22;52067;50.710;14.492;2023-01-30T12:29:37;3.52;81.37
65470;DHT22;52067;50.710;14.492;2023-01-30T12:32:10;3.49;81.23
65470;DHT22;52067;50.710;14.492;2023-01-30T12:34:36;3.48;81.47
65470;DHT22;52067;50.710;14.492;2023-01-30T12:42:53;3.45;81.44
65470;DHT22;52067;50.710;14.492;2023-01-30T12:45:25;3.31;81.77
65470;DHT22;52067;50.710;14.492;2023-01-30T12:48:21;3.31;81.70
65470;DHT22;52067;50.710;14.492;2023-01-30T12:51:04;3.38;81.77
65470;DHT22;52067;50.710;14.492;2023-01-30T12:58:50;3.53;80.44
65470;DHT22;52067;50.710;14.492;2023-01-30T13:01:24;3.63;79.56
65470;DHT22;52067;50.710;14.492;2023-01-30T13:07:14;3.93;78.14
65470;DHT22;52067;50.710;14.492;2023-01-30T13:10:02;4.13;77.25
65470;DHT22;52067;50.710;14.492;2023-01-30T13:13:19;4.15;76.57
65470;DHT22;52067;50.710;14.492;2023-01-30T13:16:02;4.13;76.53
65470;DHT22;52067;50.710;14.492;2023-01-30T13:18:40;4.18;76.42
65470;DHT22;52067;50.710;14.492;2023-01-30T13:21:15;4.24;76.35
65470;DHT22;52067;50.710;14.492;2023-01-30T13:26:35;4.10;76.51
65470;DHT22;52067;50.710;14.492;2023-01-30T13:31:52;3.93;76.85
65470;DHT22;52067;50.710;14.492;2023-01-30T13:34:43;3.74;77.92
65470;DHT22;52067;50.710;14.492;2023-01-30T13:37:16;3.69;78.00
65470;DHT22;52067;50.710;14.492;2023-01-30T13:39:55;3.70;78.27
65470;DHT22;52067;50.710;14.492;2023-01-30T13:42:42;3.74;77.85
65470;DHT22;52067;50.710;14.492;2023-01-30T13:45:21;3.73;77.73
65470;DHT22;52067;50.710;14.492;2023-01-30T13:48:11;3.66;78.05
65470;DHT22;52067;50.710;14.492;2023-01-30T14:04:44;3.43;79.30
65470;DHT22;52067;50.710;14.492;2023-01-30T14:07:39;3.35;79.33
65470;DHT22;52067;50.710;14.492;2023-01-30T14:12:45;3.63;78.60
65470;DHT22;52067;50.710;14.492;2023-01-30T14:18:00;3.66;77.93
65470;DHT22;52067;50.710;14.492;2023-01-30T14:20:32;3.69;78.19
65470;DHT22;52067;50.710;14.492;2023-01-30T14:22:59;3.76;77.61
65470;DHT22;52067;50.710;14.492;2023-01-30T14:31:00;3.90;76.70
65470;DHT22;52067;50.710;14.492;2023-01-30T14:38:28;3.86;76.15
65470;DHT22;52067;50.710;14.492;2023-01-30T14:51:34;3.95;75.38
65470;DHT22;52067;50.710;14.492;2023-01-30T15:04:19;3.94;74.27
65470;DHT22;52067;50.710;14.492;2023-01-30T15:06:46;4.01;74.05
65470;DHT22;52067;50.710;14.492;2023-01-30T15:09:16;3.95;74.04
65470;DHT22;52067;50.710;14.492;2023-01-30T15:11:43;4.03;73.62
65470;DHT22;52067;50.710;14.492;2023-01-30T15:14:27;4.04;73.77
65470;DHT22;52067;50.710;14.492;2023-01-30T15:17:26;4.05;74.16
65470;DHT22;52067;50.710;14.492;2023-01-30T15:22:30;3.95;74.73
65470;DHT22;52067;50.710;14.492;2023-01-30T15:27:31;4.03;73.84
65470;DHT22;52067;50.710;14.492;2023-01-30T15:32:30;3.90;74.81
65470;DHT22;52067;50.710;14.492;2023-01-30T15:34:58;3.82;75.52
65470;DHT22;52067;50.710;14.492;2023-01-30T15:37:35;3.93;73.84
65470;DHT22;52067;50.710;14.492;2023-01-30T15:42:42;3.93;74.14
65470;DHT22;52067;50.710;14.492;2023-01-30T15:50:36;4.03;73.32
65470;DHT22;52067;50.710;14.492;2023-01-30T15:53:02;4.03;73.88
65470;DHT22;52067;50.710;14.492;2023-01-30T15:55:32;3.87;74.82
65470;DHT22;52067;50.710;14.492;2023-01-30T15:58:15;3.80;74.63
65470;DHT22;52067;50.710;14.492;2023-01-30T16:00:49;3.83;74.30
65470;DHT22;52067;50.710;14.492;2023-01-30T16:03:28;3.89;74.39
65470;DHT22;52067;50.710;14.492;2023-01-30T16:05:56;3.90;74.47
65470;DHT22;52067;50.710;14.492;2023-01-30T16:08:30;3.97;73.96
65470;DHT22;52067;50.710;14.492;2023-01-30T16:10:56;4.01;72.73
65470;DHT22;52067;50.710;14.492;2023-01-30T16:13:22;4.07;73.30
65470;DHT22;52067;50.710;14.492;2023-01-30T16:16:07;4.13;73.01
65470;DHT22;52067;50.710;14.492;2023-01-30T16:21:38;4.11;73.81
65470;DHT22;52067;50.710;14.492;2023-01-30T16:24:20;3.98;74.74
65470;DHT22;52067;50.710;14.492;2023-01-30T16:26:52;4.11;74.00
65470;DHT22;52067;50.710;14.492;2023-01-30T16:29:21;4.07;74.55
65470;DHT22;52067;50.710;14.492;2023-01-30T16:31:49;4.03;75.06
65470;DHT22;52067;50.710;14.492;2023-01-30T16:34:30;3.79;76.32
65470;DHT22;52067;50.710;14.492;2023-01-30T16:37:00;3.82;76.04
65470;DHT22;52067;50.710;14.492;2023-01-30T16:39:30;3.76;76.64
65470;DHT22;52067;50.710;14.492;2023-01-30T16:41:57;3.76;76.63
65470;DHT22;52067;50.710;14.492;2023-01-30T16:47:04;3.76;76.31
65470;DHT22;52067;50.710;14.492;2023-01-30T16:52:17;3.79;76.04
65470;DHT22;52067;50.710;14.492;2023-01-30T16:54:49;3.77;76.34
65470;DHT22;52067;50.710;14.492;2023-01-30T17:00:07;3.67;77.35
65470;DHT22;52067;50.710;14.492;2023-01-30T17:02:49;3.48;79.83
65470;DHT22;52067;50.710;14.492;2023-01-30T17:07:46;2.97;83.68
65470;DHT22;52067;50.710;14.492;2023-01-30T17:12:56;2.80;84.83
65470;DHT22;52067;50.710;14.492;2023-01-30T17:15:26;2.83;84.08
65470;DHT22;52067;50.710;14.492;2023-01-30T17:17:51;3.00;82.91
65470;DHT22;52067;50.710;14.492;2023-01-30T17:20:17;2.95;83.27
65470;DHT22;52067;50.710;14.492;2023-01-30T17:22:45;3.07;82.53
65470;DHT22;52067;50.710;14.492;2023-01-30T17:25:28;3.07;83.35
65470;DHT22;52067;50.710;14.492;2023-01-30T17:27:55;3.03;83.57
65470;DHT22;52067;50.710;14.492;2023-01-30T17:30:21;3.03;83.68
65470;DHT22;52067;50.710;14.492;2023-01-30T17:32:46;3.01;84.14
65470;DHT22;52067;50.710;14.492;2023-01-30T17:35:15;2.88;84.53
65470;DHT22;52067;50.710;14.492;2023-01-30T17:37:40;2.88;84.59
65470;DHT22;52067;50.710;14.492;2023-01-30T17:40:16;2.87;84.82
65470;DHT22;52067;50.710;14.492;2023-01-30T17:42:41;2.90;84.48
65470;DHT22;52067;50.710;14.492;2023-01-30T17:45:07;2.91;84.20
65470;DHT22;52067;50.710;14.492;2023-01-30T17:47:33;3.00;83.65
65470;DHT22;52067;50.710;14.492;2023-01-30T17:49:59;3.08;82.68
65470;DHT22;52067;50.710;14.492;2023-01-30T17:52:24;2.97;83.73
65470;DHT22;52067;50.710;14.492;2023-01-30T17:54:50;2.98;84.02
65470;DHT22;52067;50.710;14.492;2023-01-30T17:57:15;3.08;82.96
65470;DHT22;52067;50.710;14.492;2023-01-30T17:59:41;3.17;82.37
65470;DHT22;52067;50.710;14.492;2023-01-30T18:02:08;3.05;83.51
65470;DHT22;52067;50.710;14.492;2023-01-30T18:04:34;3.04;83.80
65470;DHT22;52067;50.710;14.492;2023-01-30T18:07:02;2.97;84.43
65470;DHT22;52067;50.710;14.492;2023-01-30T18:09:29;2.90;84.56
65470;DHT22;52067;50.710;14.492;2023-01-30T18:11:55;2.87;84.43
65470;DHT22;52067;50.710;14.492;2023-01-30T18:14:20;2.94;84.24
65470;DHT22;52067;50.710;14.492;2023-01-30T18:16:46;3.01;83.92
65470;DHT22;52067;50.710;14.492;2023-01-30T18:19:13;3.05;83.64
65470;DHT22;52067;50.710;14.492;2023-01-30T18:21:39;3.01;84.15
65470;DHT22;52067;50.710;14.492;2023-01-30T18:24:07;2.90;85.00
65470;DHT22;52067;50.710;14.492;2023-01-30T18:26:34;2.80;85.58
65470;DHT22;52067;50.710;14.492;2023-01-30T18:28:59;2.66;86.80
65470;DHT22;52067;50.710;14.492;2023-01-30T18:31:27;2.53;87.55